createdAt,value
2023-08-13T03:01:53.206Z,100229.73
2023-08-13T03:04:26.254Z,100229.56
2023-08-13T03:06:56.840Z,100228.84
2023-08-13T03:09:26.829Z,100220.69
2023-08-13T03:12:00.586Z,100222.89
2023-08-13T03:14:32.325Z,100218.73
2023-08-13T03:17:00.760Z,100213.90
2023-08-13T03:19:28.133Z,100206.59
2023-08-13T03:21:56.818Z,100205.79
2023-08-13T03:24:25.818Z,100202.33
2023-08-13T03:26:58.189Z,100202.41
2023-08-13T03:29:25.997Z,100198.52
2023-08-13T03:31:57.350Z,100198.45
2023-08-13T03:34:27.719Z,100195.48
2023-08-13T03:36:56.505Z,100193.41
2023-08-13T03:39:25.388Z,100188.70
2023-08-13T03:41:56.046Z,100198.09
2023-08-13T03:44:26.828Z,100221.67
2023-08-13T03:47:00.242Z,100223.18
2023-08-13T03:49:30.361Z,100220.35
2023-08-13T03:51:58.821Z,100217.32
2023-08-13T03:54:30.615Z,100215.21
2023-08-13T03:56:57.886Z,100213.14
2023-08-13T03:59:27.312Z,100209.02
2023-08-13T04:01:55.691Z,100210.56
2023-08-13T04:04:24.414Z,100214.25
2023-08-13T04:06:56.685Z,100208.36
2023-08-13T04:09:25.010Z,100203.20
2023-08-13T04:11:53.464Z,100197.58
2023-08-13T04:14:21.642Z,100196.02
2023-08-13T04:16:51.728Z,100194.41
2023-08-13T04:19:21.175Z,100200.04
2023-08-13T04:21:52.927Z,100199.77
2023-08-13T04:24:23.408Z,100202.19
2023-08-13T04:26:55.736Z,100201.34
2023-08-13T04:29:24.018Z,100202.25
2023-08-13T04:31:55.219Z,100198.70
2023-08-13T04:34:23.809Z,100199.86
2023-08-13T04:36:55.041Z,100204.73
2023-08-13T04:39:25.541Z,100205.15
2023-08-13T04:41:54.588Z,100207.17
2023-08-13T04:44:23.089Z,100208.39
2023-08-13T04:46:53.257Z,100216.21
2023-08-13T04:49:22.112Z,100214.91
2023-08-13T04:51:52.227Z,100221.51
2023-08-13T04:54:21.218Z,100217.70
2023-08-13T04:56:49.184Z,100216.73
2023-08-13T04:59:17.830Z,100217.30
2023-08-13T05:01:45.976Z,100220.74
2023-08-13T05:04:14.364Z,100224.36
2023-08-13T05:06:42.565Z,100220.55
2023-08-13T05:09:11.083Z,100217.52
2023-08-13T05:11:39.900Z,100220.42
2023-08-13T05:14:08.379Z,100216.42
2023-08-13T05:16:37.183Z,100217.13
2023-08-13T05:19:04.625Z,100221.34
2023-08-13T05:21:37.119Z,100215.95
2023-08-13T05:24:37.305Z,100213.33
2023-08-13T05:27:07.633Z,100210.52
2023-08-13T05:29:38.173Z,100219.03
2023-08-13T05:32:07.026Z,100219.73
2023-08-13T05:34:40.473Z,100224.09
2023-08-13T05:37:09.627Z,100225.95
2023-08-13T05:39:37.878Z,100221.23
2023-08-13T05:42:06.559Z,100212.15
2023-08-13T05:44:37.854Z,100215.47
2023-08-13T05:47:06.519Z,100219.88
2023-08-13T05:49:34.497Z,100223.58
2023-08-13T05:52:02.623Z,100218.83
2023-08-13T05:54:31.075Z,100213.29
2023-08-13T05:56:59.162Z,100214.95
2023-08-13T05:59:29.438Z,100213.25
2023-08-13T06:01:57.089Z,100215.20
2023-08-13T06:04:24.960Z,100208.82
2023-08-13T06:06:52.635Z,100211.10
2023-08-13T06:09:20.463Z,100211.20
2023-08-13T06:11:48.617Z,100207.35
2023-08-13T06:14:16.100Z,100203.07
2023-08-13T06:16:46.381Z,100199.90
2023-08-13T06:19:15.873Z,100207.27
2023-08-13T06:21:43.793Z,100210.95
2023-08-13T06:24:11.544Z,100212.52
2023-08-13T06:26:39.084Z,100212.30
2023-08-13T06:29:06.071Z,100221.77
2023-08-13T06:31:42.032Z,100220.60
2023-08-13T06:34:48.255Z,100221.89
2023-08-13T06:37:16.808Z,100224.23
2023-08-13T06:39:44.928Z,100223.85
2023-08-13T06:42:13.322Z,100221.69
2023-08-13T06:44:44.682Z,100218.54
2023-08-13T06:47:13.974Z,100221.34
2023-08-13T06:49:42.461Z,100222.67
2023-08-13T06:52:14.082Z,100223.02
2023-08-13T06:54:44.832Z,100225.13
2023-08-13T06:57:32.974Z,100230.63
2023-08-13T07:00:00.863Z,100235.70
2023-08-13T07:02:29.099Z,100239.29
2023-08-13T07:04:57.136Z,100240.65
2023-08-13T07:07:28.999Z,100241.36
2023-08-13T07:10:06.263Z,100238.15
2023-08-13T07:12:39.216Z,100243.67
2023-08-13T07:15:09.777Z,100243.53
2023-08-13T07:17:39.880Z,100246.54
2023-08-13T07:20:11.067Z,100249.11
2023-08-13T07:22:39.022Z,100249.63
2023-08-13T07:25:09.961Z,100250.79
2023-08-13T07:27:38.026Z,100250.39
2023-08-13T07:30:09.486Z,100247.33
2023-08-13T07:32:37.877Z,100246.32
2023-08-13T07:35:08.037Z,100246.30
2023-08-13T07:37:40.294Z,100249.77
2023-08-13T07:40:29.969Z,100254.88
2023-08-13T07:43:03.129Z,100250.11
2023-08-13T07:45:30.409Z,100248.30
2023-08-13T07:47:59.176Z,100248.84
2023-08-13T07:50:26.703Z,100250.98
2023-08-13T07:52:54.376Z,100252.77
2023-08-13T07:55:22.376Z,100251.64
2023-08-13T07:58:18.940Z,100250.99
2023-08-13T08:00:46.999Z,100254.85
2023-08-13T08:03:16.730Z,100257.58
2023-08-13T08:05:49.148Z,100262.47
2023-08-13T08:34:42.318Z,100277.41
2023-08-13T08:37:15.388Z,100278.66
2023-08-13T08:39:47.094Z,100276.36
2023-08-13T08:42:15.921Z,100274.51
2023-08-13T08:44:49.521Z,100276.95
2023-08-13T08:47:25.365Z,100279.30
2023-08-13T08:50:07.200Z,100282.12
2023-08-13T08:52:42.194Z,100287.73
2023-08-13T08:55:45.258Z,100285.86
2023-08-13T08:58:14.252Z,100286.81
2023-08-13T09:01:10.306Z,100286.63
2023-08-13T09:03:49.092Z,100287.26
2023-08-13T09:06:22.650Z,100288.77
2023-08-13T09:08:53.208Z,100295.58
2023-08-13T09:11:21.130Z,100293.77
2023-08-13T09:13:53.218Z,100292.84
2023-08-13T09:16:21.833Z,100290.46
2023-08-13T09:19:04.058Z,100290.02
2023-08-13T09:21:39.894Z,100289.48
2023-08-13T09:24:39.904Z,100287.70
2023-08-13T09:27:10.689Z,100282.41
2023-08-13T09:29:40.392Z,100278.03
2023-08-13T09:32:09.514Z,100284.60
2023-08-13T09:34:37.742Z,100278.77
2023-08-13T09:37:05.603Z,100281.45
2023-08-13T09:39:53.832Z,100278.27
2023-08-13T09:42:24.666Z,100278.45
2023-08-13T09:44:57.312Z,100281.16
2023-08-13T09:47:27.609Z,100285.18
2023-08-13T09:50:02.937Z,100286.18
2023-08-13T09:52:32.680Z,100286.29
2023-08-13T09:55:18.213Z,100288.13
2023-08-13T10:01:11.867Z,100286.83
2023-08-13T10:03:41.865Z,100288.89
2023-08-13T10:06:11.822Z,100293.06
2023-08-13T10:08:42.282Z,100293.52
2023-08-13T10:11:13.361Z,100287.68
2023-08-13T10:13:42.027Z,100289.36
2023-08-13T10:16:14.540Z,100290.98
2023-08-13T10:18:48.639Z,100289.19
2023-08-13T10:22:06.319Z,100292.30
2023-08-13T10:24:39.705Z,100290.56
2023-08-13T10:27:13.929Z,100293.46
2023-08-13T10:29:45.126Z,100297.52
2023-08-13T10:32:21.351Z,100298.92
2023-08-13T10:34:55.429Z,100300.48
2023-08-13T10:37:33.279Z,100296.90
2023-08-13T10:40:09.494Z,100298.13
2023-08-13T10:42:38.888Z,100296.98
2023-08-13T10:45:09.713Z,100298.33
2023-08-13T10:47:57.928Z,100299.64
2023-08-13T10:50:43.908Z,100299.09
2023-08-13T10:53:27.915Z,100295.15
2023-08-13T10:56:10.691Z,100296.83
2023-08-13T10:58:41.706Z,100302.15
2023-08-13T11:01:24.420Z,100301.20
2023-08-13T11:04:04.801Z,100305.38
2023-08-13T11:06:42.148Z,100304.56
2023-08-13T11:09:12.210Z,100298.46
2023-08-13T11:11:45.325Z,100301.11
2023-08-13T11:14:16.165Z,100305.83
2023-08-13T11:16:48.948Z,100306.55
2023-08-13T11:19:20.396Z,100302.39
2023-08-13T11:21:55.554Z,100301.55
2023-08-13T11:24:28.419Z,100300.22
2023-08-13T11:26:57.670Z,100302.29
2023-08-13T11:29:27.433Z,100304.51
2023-08-13T11:32:22.472Z,100302.16
2023-08-13T11:34:55.273Z,100298.59
2023-08-13T11:37:44.776Z,100294.37
2023-08-13T11:40:20.216Z,100296.17
2023-08-13T11:42:58.335Z,100292.45
2023-08-13T11:45:53.711Z,100294.34
2023-08-13T11:48:39.057Z,100302.05
2023-08-13T11:54:36.735Z,100305.57
2023-08-13T11:57:09.172Z,100301.70
2023-08-13T12:00:05.345Z,100309.42
2023-08-13T12:02:43.346Z,100309.58
2023-08-13T12:05:17.456Z,100315.25
2023-08-13T12:07:49.405Z,100311.14
2023-08-13T12:10:18.871Z,100310.86
2023-08-13T12:12:51.310Z,100313.41
2023-08-13T12:15:25.385Z,100310.98
2023-08-13T12:17:56.698Z,100310.60
2023-08-13T12:24:06.555Z,100309.73
2023-08-13T12:26:45.131Z,100311.19
2023-08-13T12:29:21.771Z,100314.80
2023-08-13T12:32:07.725Z,100312.59
2023-08-13T12:34:39.527Z,100315.75
2023-08-13T12:55:01.033Z,100325.25
2023-08-13T12:57:28.732Z,100328.13
2023-08-13T12:59:58.784Z,100326.48
2023-08-13T13:02:29.853Z,100326.33
2023-08-13T13:05:01.844Z,100320.88
2023-08-13T13:07:32.730Z,100326.25
2023-08-13T13:10:02.305Z,100329.85
2023-08-13T13:12:34.073Z,100327.42
2023-08-13T13:15:05.017Z,100329.15
2023-08-13T13:17:35.576Z,100327.77
2023-08-13T13:20:12.475Z,100332.06
2023-08-13T13:22:43.584Z,100330.77
2023-08-13T13:25:13.806Z,100331.05
2023-08-13T13:27:46.608Z,100333.07
2023-08-13T13:30:15.649Z,100334.44
2023-08-13T13:32:47.684Z,100337.14
2023-08-13T13:35:16.586Z,100338.09
2023-08-13T13:37:45.996Z,100336.92
2023-08-13T13:40:15.507Z,100339.94
2023-08-13T13:42:49.156Z,100345.04
2023-08-13T13:45:23.807Z,100339.49
2023-08-13T13:47:52.768Z,100343.23
2023-08-13T13:50:22.463Z,100344.61
2023-08-13T13:53:10.218Z,100344.43
2023-08-13T13:55:47.318Z,100349.04
2023-08-13T13:58:16.072Z,100347.04
2023-08-13T14:00:46.312Z,100345.14
2023-08-13T14:03:15.104Z,100339.83
2023-08-13T14:05:44.551Z,100340.91
2023-08-13T14:08:14.032Z,100341.16
2023-08-13T14:10:45.325Z,100344.73
2023-08-13T14:13:15.614Z,100346.05
2023-08-13T14:15:59.494Z,100344.58
2023-08-13T14:18:31.101Z,100344.05
2023-08-13T14:21:16.035Z,100346.23
2023-08-13T14:23:46.847Z,100344.64
2023-08-13T14:26:16.723Z,100343.54
2023-08-13T14:28:48.443Z,100345.40
2023-08-13T14:31:18.607Z,100346.86
2023-08-13T14:33:48.977Z,100351.52
2023-08-13T14:36:18.092Z,100355.31
2023-08-13T14:38:47.432Z,100354.40
2023-08-13T14:41:16.825Z,100352.91
2023-08-13T14:43:45.796Z,100347.80
2023-08-13T14:46:20.385Z,100352.66
2023-08-13T14:48:49.302Z,100350.10
2023-08-13T14:51:18.189Z,100350.86
2023-08-13T14:53:46.717Z,100350.80
2023-08-13T14:56:19.244Z,100349.12
2023-08-13T14:58:47.128Z,100351.26
2023-08-13T15:01:16.034Z,100351.14
2023-08-13T15:03:45.156Z,100354.75
2023-08-13T15:06:17.385Z,100357.67
2023-08-13T15:08:47.856Z,100359.45
2023-08-13T15:11:15.800Z,100359.40
2023-08-13T15:13:44.174Z,100358.13
2023-08-13T15:16:13.211Z,100359.46
2023-08-13T15:18:42.543Z,100361.02
2023-08-13T15:21:13.127Z,100361.05
2023-08-13T15:23:43.928Z,100361.52
2023-08-13T15:26:16.652Z,100359.91
2023-08-13T15:28:46.087Z,100360.60
2023-08-13T15:31:16.070Z,100363.30
2023-08-13T15:33:44.733Z,100364.48
2023-08-13T15:36:15.296Z,100362.80
2023-08-13T15:38:48.796Z,100363.61
2023-08-13T15:41:18.016Z,100368.13
2023-08-13T15:43:46.991Z,100365.52
2023-08-13T15:46:15.195Z,100365.54
2023-08-13T15:48:43.497Z,100363.29
2023-08-13T15:51:15.718Z,100363.52
2023-08-13T15:53:45.751Z,100361.33
2023-08-13T15:56:14.735Z,100356.83
2023-08-13T15:58:43.225Z,100359.61
2023-08-13T16:01:13.430Z,100357.45
2023-08-13T16:03:41.964Z,100361.66
2023-08-13T16:07:13.029Z,100357.84
2023-08-13T16:09:50.857Z,100358.90
2023-08-13T16:12:22.449Z,100361.48
2023-08-13T16:14:51.587Z,100361.70
2023-08-13T16:17:19.372Z,100363.12
2023-08-13T16:19:50.022Z,100358.36
2023-08-13T16:22:19.756Z,100359.02
2023-08-13T16:24:48.801Z,100359.58
2023-08-13T16:27:18.016Z,100361.11
2023-08-13T16:29:47.010Z,100364.97
2023-08-13T16:32:27.956Z,100364.69
2023-08-13T16:35:01.109Z,100365.45
2023-08-13T16:37:34.721Z,100365.11
2023-08-13T16:40:06.158Z,100364.44
2023-08-13T16:42:46.840Z,100367.52
2023-08-13T16:45:20.325Z,100370.04
2023-08-13T16:47:48.118Z,100372.48
2023-08-13T16:50:16.136Z,100370.29
2023-08-13T16:52:44.260Z,100370.66
2023-08-13T16:55:12.550Z,100373.80
2023-08-13T16:57:43.877Z,100373.83
2023-08-13T17:00:13.378Z,100374.84
2023-08-13T17:02:44.689Z,100375.20
2023-08-13T17:05:14.581Z,100374.89
2023-08-13T17:07:42.882Z,100380.81
2023-08-13T17:10:14.885Z,100382.38
2023-08-13T17:12:44.277Z,100380.52
2023-08-13T17:15:23.819Z,100387.84
2023-08-13T17:17:56.618Z,100387.85
2023-08-13T17:20:26.594Z,100389.45
2023-08-13T17:22:55.381Z,100389.71
2023-08-13T17:25:24.972Z,100387.88
2023-08-13T17:27:54.443Z,100389.03
2023-08-13T17:30:26.024Z,100392.48
2023-08-13T17:32:54.480Z,100391.52
2023-08-13T17:35:22.874Z,100392.59
2023-08-13T17:37:51.367Z,100392.57
2023-08-13T17:40:20.339Z,100390.38
2023-08-13T17:42:49.802Z,100392.90
2023-08-13T17:45:19.048Z,100393.73
2023-08-13T17:47:48.384Z,100396.55
2023-08-13T17:50:17.519Z,100402.80
2023-08-13T17:52:45.755Z,100404.40
2023-08-13T17:55:13.423Z,100403.84
2023-08-13T17:57:42.090Z,100412.09
2023-08-13T18:00:11.185Z,100415.46
2023-08-13T18:02:46.171Z,100411.56
2023-08-13T18:05:15.261Z,100419.97
2023-08-13T18:07:44.242Z,100419.89
2023-08-13T18:10:13.275Z,100421.44
2023-08-13T18:12:42.790Z,100421.80
2023-08-13T18:15:11.568Z,100427.52
2023-08-13T18:17:40.209Z,100431.45
2023-08-13T18:20:12.267Z,100436.71
2023-08-13T18:22:43.360Z,100444.19
2023-08-13T18:25:12.633Z,100450.27
2023-08-13T18:27:41.513Z,100453.05
2023-08-13T18:30:10.178Z,100458.86
2023-08-13T18:32:38.598Z,100464.73
2023-08-13T18:35:07.632Z,100464.44
2023-08-13T18:37:35.298Z,100461.73
2023-08-13T18:40:04.139Z,100466.38
2023-08-13T18:42:32.321Z,100464.81
2023-08-13T18:45:00.585Z,100466.08
2023-08-13T18:47:29.266Z,100468.49
2023-08-13T18:49:58.358Z,100474.83
2023-08-13T18:52:30.430Z,100476.14
2023-08-13T18:54:58.885Z,100479.23
2023-08-13T18:57:27.167Z,100478.38
2023-08-13T18:59:56.764Z,100480.99
2023-08-13T19:02:26.711Z,100482.29
2023-08-13T19:04:55.191Z,100483.90
2023-08-13T19:07:23.948Z,100490.06
2023-08-13T19:09:54.178Z,100490.77
2023-08-13T19:12:27.481Z,100489.86
2023-08-13T19:14:58.071Z,100492.09
2023-08-13T19:17:27.207Z,100499.50
2023-08-13T19:19:55.723Z,100504.80
2023-08-13T19:22:24.388Z,100504.85
2023-08-13T19:24:52.762Z,100507.05
2023-08-13T19:27:22.388Z,100509.40
2023-08-13T19:29:52.089Z,100512.56
2023-08-13T19:32:21.794Z,100522.89
2023-08-13T19:34:52.933Z,100526.21
2023-08-13T19:37:22.651Z,100528.63
2023-08-13T19:39:53.363Z,100526.53
2023-08-13T19:42:24.397Z,100533.23
2023-08-13T19:44:55.072Z,100536.86
2023-08-13T19:47:26.899Z,100535.94
2023-08-13T19:49:56.574Z,100540.48
2023-08-13T19:52:32.004Z,100538.86
2023-08-13T19:55:00.720Z,100537.45
2023-08-13T19:57:33.885Z,100533.98
2023-08-13T20:00:03.951Z,100538.51
2023-08-13T20:02:43.625Z,100542.84
2023-08-13T20:05:11.713Z,100543.93
2023-08-13T20:07:39.998Z,100543.57
2023-08-13T20:10:10.625Z,100544.98
2023-08-13T20:12:40.726Z,100542.31
2023-08-13T20:15:14.555Z,100548.50
2023-08-13T20:17:43.789Z,100547.20
2023-08-13T20:20:17.820Z,100545.98
2023-08-13T20:22:53.757Z,100540.48
2023-08-13T20:25:29.920Z,100545.52
2023-08-13T20:28:08.019Z,100553.61
2023-08-13T20:30:39.911Z,100553.79
2023-08-13T20:33:22.136Z,100547.02
2023-08-13T20:35:55.824Z,100553.36
2023-08-13T20:38:25.519Z,100556.77
2023-08-13T20:41:02.188Z,100555.92
2023-08-13T20:43:33.433Z,100561.14
2023-08-13T20:46:04.199Z,100561.96
2023-08-13T20:48:32.040Z,100566.63
2023-08-13T20:51:04.254Z,100567.23
2023-08-13T20:53:35.206Z,100565.82
2023-08-13T20:56:08.682Z,100570.18
2023-08-13T20:58:40.338Z,100569.01
2023-08-13T21:01:14.270Z,100559.94
2023-08-13T21:03:45.427Z,100563.95
2023-08-13T21:06:22.399Z,100564.64
2023-08-13T21:09:12.695Z,100565.73
2023-08-13T21:11:50.780Z,100569.36
2023-08-13T21:14:23.902Z,100563.25
2023-08-13T21:17:03.423Z,100562.67
2023-08-13T21:19:34.981Z,100562.10
2023-08-13T21:22:10.288Z,100561.13
2023-08-13T21:25:02.620Z,100564.96
2023-08-13T21:27:36.882Z,100564.13
2023-08-13T21:30:26.070Z,100565.77
2023-08-13T21:33:03.767Z,100564.50
2023-08-13T21:35:43.337Z,100565.59
2023-08-13T21:38:16.415Z,100568.93
2023-08-13T21:40:54.166Z,100569.05
2023-08-13T21:43:24.935Z,100569.59
2023-08-13T21:45:55.898Z,100570.92
2023-08-13T21:48:26.394Z,100570.43
2023-08-13T21:50:59.826Z,100568.45
2023-08-13T21:53:30.394Z,100571.19
2023-08-13T21:56:04.255Z,100572.47
2023-08-13T21:58:51.029Z,100568.71
2023-08-13T22:01:32.870Z,100566.20
2023-08-13T22:04:08.984Z,100570.77
2023-08-13T22:06:39.950Z,100568.71
2023-08-13T22:09:12.276Z,100566.23
2023-08-13T22:11:41.927Z,100565.33
2023-08-13T22:14:10.136Z,100566.20
2023-08-13T22:16:38.333Z,100565.02
2023-08-13T22:19:06.627Z,100566.33
2023-08-13T22:21:35.854Z,100566.23
2023-08-13T22:24:05.638Z,100567.71
2023-08-13T22:26:34.497Z,100565.20
2023-08-13T22:29:03.027Z,100568.23
2023-08-13T22:31:30.956Z,100570.25
2023-08-13T22:34:00.788Z,100568.55
2023-08-13T22:36:29.277Z,100566.33
2023-08-13T22:38:57.276Z,100566.45
2023-08-13T22:41:26.727Z,100565.42
2023-08-13T22:43:56.682Z,100568.59
2023-08-13T22:46:25.465Z,100569.12
2023-08-13T22:48:53.640Z,100570.80
2023-08-13T22:51:21.822Z,100571.80
2023-08-13T22:53:52.557Z,100577.98
2023-08-13T22:56:20.835Z,100580.73
2023-08-13T22:58:49.458Z,100583.09
2023-08-13T23:01:17.697Z,100583.65
2023-08-13T23:03:46.060Z,100583.03
2023-08-13T23:06:19.049Z,100586.52
2023-08-13T23:08:47.480Z,100586.45
2023-08-13T23:11:16.661Z,100585.43
2023-08-13T23:13:45.085Z,100583.58
2023-08-13T23:16:13.256Z,100581.02
2023-08-13T23:18:41.433Z,100580.95
2023-08-13T23:21:09.369Z,100580.34
2023-08-13T23:23:37.873Z,100585.74
2023-08-13T23:26:06.038Z,100588.73
2023-08-13T23:28:34.264Z,100589.06
2023-08-13T23:31:02.162Z,100589.09
2023-08-13T23:33:32.483Z,100584.33
2023-08-13T23:36:00.740Z,100582.84
2023-08-13T23:38:28.101Z,100580.98
2023-08-13T23:40:56.645Z,100580.46
2023-08-13T23:43:24.936Z,100579.01
2023-08-13T23:45:52.216Z,100578.84
2023-08-13T23:48:20.360Z,100574.95
2023-08-13T23:50:55.719Z,100577.95
2023-08-13T23:53:25.120Z,100573.91
2023-08-13T23:55:53.851Z,100574.42
2023-08-13T23:58:22.554Z,100578.08
